sensor_id;sensor_type;location;lat;lon;timestamp;temperature;humidity
69938;DHT22;57248;47.320;15.998;2023-11-21T00:00:04;5.73;95.17
69938;DHT22;57248;47.320;15.998;2023-11-21T00:02:43;5.74;95.00
69938;DHT22;57248;47.320;15.998;2023-11-21T00:05:16;5.71;94.84
69938;DHT22;57248;47.320;15.998;2023-11-21T00:07:47;5.69;95.37
69938;DHT22;57248;47.320;15.998;2023-11-21T00:10:19;5.69;95.64
69938;DHT22;57248;47.320;15.998;2023-11-21T00:12:51;5.71;95.26
69938;DHT22;57248;47.320;15.998;2023-11-21T00:15:23;5.75;95.43
69938;DHT22;57248;47.320;15.998;2023-11-21T00:18:02;5.78;95.10
69938;DHT22;57248;47.320;15.998;2023-11-21T00:20:34;5.78;95.10
69938;DHT22;57248;47.320;15.998;2023-11-21T00:23:06;5.77;95.08
69938;DHT22;57248;47.320;15.998;2023-11-21T00:25:38;5.75;95.19
69938;DHT22;57248;47.320;15.998;2023-11-21T00:28:10;5.75;94.90
69938;DHT22;57248;47.320;15.998;2023-11-21T00:30:42;5.83;95.36
69938;DHT22;57248;47.320;15.998;2023-11-21T00:33:14;5.87;95.56
69938;DHT22;57248;47.320;15.998;2023-11-21T00:35:46;5.95;95.30
69938;DHT22;57248;47.320;15.998;2023-11-21T00:38:19;5.93;94.95
69938;DHT22;57248;47.320;15.998;2023-11-21T00:40:51;5.87;94.59
69938;DHT22;57248;47.320;15.998;2023-11-21T00:43:25;5.89;95.22
69938;DHT22;57248;47.320;15.998;2023-11-21T00:45:57;5.87;95.28
69938;DHT22;57248;47.320;15.998;2023-11-21T00:48:29;5.89;95.80
69938;DHT22;57248;47.320;15.998;2023-11-21T00:51:01;5.90;95.46
69938;DHT22;57248;47.320;15.998;2023-11-21T00:53:27;5.93;95.51
69938;DHT22;57248;47.320;15.998;2023-11-21T00:55:59;5.89;95.61
69938;DHT22;57248;47.320;15.998;2023-11-21T00:58:31;5.86;94.87
69938;DHT22;57248;47.320;15.998;2023-11-21T01:01:03;5.77;95.47
69938;DHT22;57248;47.320;15.998;2023-11-21T01:03:37;5.73;95.58
69938;DHT22;57248;47.320;15.998;2023-11-21T01:06:08;5.78;94.90
69938;DHT22;57248;47.320;15.998;2023-11-21T01:08:41;5.74;95.53
69938;DHT22;57248;47.320;15.998;2023-11-21T01:11:13;5.73;95.59
69938;DHT22;57248;47.320;15.998;2023-11-21T01:13:45;5.75;95.56
69938;DHT22;57248;47.320;15.998;2023-11-21T01:16:17;5.74;96.10
69938;DHT22;57248;47.320;15.998;2023-11-21T01:18:49;5.75;95.55
69938;DHT22;57248;47.320;15.998;2023-11-21T01:21:28;5.78;95.39
69938;DHT22;57248;47.320;15.998;2023-11-21T01:24:00;5.77;95.26
69938;DHT22;57248;47.320;15.998;2023-11-21T01:26:33;5.80;95.15
69938;DHT22;57248;47.320;15.998;2023-11-21T01:29:05;5.77;94.92
69938;DHT22;57248;47.320;15.998;2023-11-21T01:31:37;5.75;94.93
69938;DHT22;57248;47.320;15.998;2023-11-21T01:34:09;5.75;94.94
69938;DHT22;57248;47.320;15.998;2023-11-21T01:36:41;5.77;94.97
69938;DHT22;57248;47.320;15.998;2023-11-21T01:39:07;5.74;94.75
69938;DHT22;57248;47.320;15.998;2023-11-21T01:41:40;5.75;94.76
69938;DHT22;57248;47.320;15.998;2023-11-21T01:44:12;5.71;95.72
69938;DHT22;57248;47.320;15.998;2023-11-21T01:46:38;5.67;95.78
69938;DHT22;57248;47.320;15.998;2023-11-21T01:49:10;5.70;95.56
69938;DHT22;57248;47.320;15.998;2023-11-21T01:51:47;5.63;95.48
69938;DHT22;57248;47.320;15.998;2023-11-21T01:54:21;5.63;95.73
69938;DHT22;57248;47.320;15.998;2023-11-21T01:56:53;5.54;96.15
69938;DHT22;57248;47.320;15.998;2023-11-21T01:59:27;5.60;95.69
69938;DHT22;57248;47.320;15.998;2023-11-21T02:02:06;5.54;96.48
69938;DHT22;57248;47.320;15.998;2023-11-21T02:04:39;5.54;96.59
69938;DHT22;57248;47.320;15.998;2023-11-21T02:07:10;5.60;96.06
69938;DHT22;57248;47.320;15.998;2023-11-21T02:09:43;5.60;95.88
69938;DHT22;57248;47.320;15.998;2023-11-21T02:12:16;5.66;95.88
69938;DHT22;57248;47.320;15.998;2023-11-21T02:14:48;5.67;95.70
69938;DHT22;57248;47.320;15.998;2023-11-21T02:17:27;5.67;95.42
69938;DHT22;57248;47.320;15.998;2023-11-21T02:19:59;5.63;96.48
69938;DHT22;57248;47.320;15.998;2023-11-21T02:22:32;5.59;96.82
69938;DHT22;57248;47.320;15.998;2023-11-21T02:25:08;5.62;96.30
69938;DHT22;57248;47.320;15.998;2023-11-21T02:27:40;5.56;96.55
69938;DHT22;57248;47.320;15.998;2023-11-21T02:30:14;5.49;96.68
69938;DHT22;57248;47.320;15.998;2023-11-21T02:32:48;5.39;97.12
69938;DHT22;57248;47.320;15.998;2023-11-21T02:35:21;5.49;96.87
69938;DHT22;57248;47.320;15.998;2023-11-21T02:37:53;5.50;96.40
69938;DHT22;57248;47.320;15.998;2023-11-21T02:40:25;5.49;97.03
69938;DHT22;57248;47.320;15.998;2023-11-21T02:42:58;5.39;97.47
69938;DHT22;57248;47.320;15.998;2023-11-21T02:45:30;5.52;97.16
69938;DHT22;57248;47.320;15.998;2023-11-21T02:48:02;5.47;96.82
69938;DHT22;57248;47.320;15.998;2023-11-21T02:50:29;5.46;96.66
69938;DHT22;57248;47.320;15.998;2023-11-21T02:53:01;5.46;96.45
69938;DHT22;57248;47.320;15.998;2023-11-21T02:55:33;5.52;96.53
69938;DHT22;57248;47.320;15.998;2023-11-21T02:58:08;5.52;96.41
69938;DHT22;57248;47.320;15.998;2023-11-21T03:00:34;5.53;96.63
69938;DHT22;57248;47.320;15.998;2023-11-21T03:03:05;5.49;96.82
69938;DHT22;57248;47.320;15.998;2023-11-21T03:05:37;5.47;96.97
69938;DHT22;57248;47.320;15.998;2023-11-21T03:08:10;5.52;96.44
69938;DHT22;57248;47.320;15.998;2023-11-21T03:10:42;5.47;96.18
69938;DHT22;57248;47.320;15.998;2023-11-21T03:13:15;5.46;96.06
69938;DHT22;57248;47.320;15.998;2023-11-21T03:15:48;5.43;96.79
69938;DHT22;57248;47.320;15.998;2023-11-21T03:18:20;5.43;96.66
69938;DHT22;57248;47.320;15.998;2023-11-21T03:21:00;5.49;96.48
69938;DHT22;57248;47.320;15.998;2023-11-21T03:23:32;5.47;96.25
69938;DHT22;57248;47.320;15.998;2023-11-21T03:26:04;5.50;96.65
69938;DHT22;57248;47.320;15.998;2023-11-21T03:28:37;5.43;96.77
69938;DHT22;57248;47.320;15.998;2023-11-21T03:31:09;5.46;96.97
69938;DHT22;57248;47.320;15.998;2023-11-21T03:33:36;5.50;96.62
69938;DHT22;57248;47.320;15.998;2023-11-21T03:36:08;5.50;96.42
69938;DHT22;57248;47.320;15.998;2023-11-21T03:38:34;5.43;96.45
69938;DHT22;57248;47.320;15.998;2023-11-21T03:41:06;5.44;96.63
69938;DHT22;57248;47.320;15.998;2023-11-21T03:43:38;5.46;96.33
69938;DHT22;57248;47.320;15.998;2023-11-21T03:46:13;5.46;96.33
69938;DHT22;57248;47.320;15.998;2023-11-21T03:48:45;5.44;96.03
69938;DHT22;57248;47.320;15.998;2023-11-21T03:51:17;5.44;96.31
69938;DHT22;57248;47.320;15.998;2023-11-21T03:53:49;5.46;96.40
69938;DHT22;57248;47.320;15.998;2023-11-21T03:56:21;5.40;96.67
69938;DHT22;57248;47.320;15.998;2023-11-21T03:58:53;5.39;96.68
69938;DHT22;57248;47.320;15.998;2023-11-21T04:01:25;5.39;96.63
69938;DHT22;57248;47.320;15.998;2023-11-21T04:03:57;5.40;96.21
69938;DHT22;57248;47.320;15.998;2023-11-21T04:06:29;5.39;96.23
69938;DHT22;57248;47.320;15.998;2023-11-21T04:09:01;5.43;96.84
69938;DHT22;57248;47.320;15.998;2023-11-21T04:11:36;5.39;96.85
69938;DHT22;57248;47.320;15.998;2023-11-21T04:14:09;5.40;96.86
69938;DHT22;57248;47.320;15.998;2023-11-21T04:16:47;5.40;96.64
69938;DHT22;57248;47.320;15.998;2023-11-21T04:19:19;5.33;96.18
69938;DHT22;57248;47.320;15.998;2023-11-21T04:21:58;5.29;96.70
69938;DHT22;57248;47.320;15.998;2023-11-21T04:24:30;5.31;96.81
69938;DHT22;57248;47.320;15.998;2023-11-21T04:27:02;5.33;96.73
69938;DHT22;57248;47.320;15.998;2023-11-21T04:29:34;5.35;96.74
69938;DHT22;57248;47.320;15.998;2023-11-21T04:32:06;5.39;96.93
69938;DHT22;57248;47.320;15.998;2023-11-21T04:34:39;5.38;96.70
69938;DHT22;57248;47.320;15.998;2023-11-21T04:37:11;5.40;96.55
69938;DHT22;57248;47.320;15.998;2023-11-21T04:39:43;5.39;96.26
69938;DHT22;57248;47.320;15.998;2023-11-21T04:42:15;5.42;96.14
69938;DHT22;57248;47.320;15.998;2023-11-21T04:44:48;5.40;96.16
69938;DHT22;57248;47.320;15.998;2023-11-21T04:47:14;5.40;96.42
69938;DHT22;57248;47.320;15.998;2023-11-21T04:49:46;5.43;96.40
69938;DHT22;57248;47.320;15.998;2023-11-21T04:52:20;5.43;96.17
69938;DHT22;57248;47.320;15.998;2023-11-21T04:54:52;5.31;97.12
69938;DHT22;57248;47.320;15.998;2023-11-21T04:57:25;5.29;97.50
69938;DHT22;57248;47.320;15.998;2023-11-21T04:59:57;5.18;97.89
69938;DHT22;57248;47.320;15.998;2023-11-21T05:02:29;5.16;98.25
69938;DHT22;57248;47.320;15.998;2023-11-21T05:05:02;5.22;97.89
69938;DHT22;57248;47.320;15.998;2023-11-21T05:07:34;5.29;97.59
69938;DHT22;57248;47.320;15.998;2023-11-21T05:10:09;5.32;96.98
69938;DHT22;57248;47.320;15.998;2023-11-21T05:12:45;5.42;96.99
69938;DHT22;57248;47.320;15.998;2023-11-21T05:15:14;5.40;97.08
69938;DHT22;57248;47.320;15.998;2023-11-21T05:17:46;5.42;97.06
69938;DHT22;57248;47.320;15.998;2023-11-21T05:20:28;5.43;96.93
69938;DHT22;57248;47.320;15.998;2023-11-21T05:23:00;5.38;96.82
69938;DHT22;57248;47.320;15.998;2023-11-21T05:25:33;5.35;97.19
69938;DHT22;57248;47.320;15.998;2023-11-21T05:28:00;5.36;97.14
69938;DHT22;57248;47.320;15.998;2023-11-21T05:30:35;6.35;99.87
69938;DHT22;57248;47.320;15.998;2023-11-21T05:33:00;5.95;98.22
69938;DHT22;57248;47.320;15.998;2023-11-21T05:35:32;5.71;96.68
69938;DHT22;57248;47.320;15.998;2023-11-21T05:38:04;5.67;96.99
69938;DHT22;57248;47.320;15.998;2023-11-21T05:40:36;5.47;97.05
69938;DHT22;57248;47.320;15.998;2023-11-21T05:43:08;5.40;97.03
69938;DHT22;57248;47.320;15.998;2023-11-21T05:45:40;5.42;97.04
69938;DHT22;57248;47.320;15.998;2023-11-21T05:48:12;5.38;96.71
69938;DHT22;57248;47.320;15.998;2023-11-21T05:50:44;5.35;96.88
69938;DHT22;57248;47.320;15.998;2023-11-21T05:53:16;5.36;97.19
69938;DHT22;57248;47.320;15.998;2023-11-21T05:55:55;5.38;96.95
69938;DHT22;57248;47.320;15.998;2023-11-21T05:58:27;5.40;96.70
69938;DHT22;57248;47.320;15.998;2023-11-21T06:00:59;5.43;96.71
69938;DHT22;57248;47.320;15.998;2023-11-21T06:03:25;5.44;96.70
69938;DHT22;57248;47.320;15.998;2023-11-21T06:05:56;5.44;96.98
69938;DHT22;57248;47.320;15.998;2023-11-21T06:08:28;5.42;96.89
69938;DHT22;57248;47.320;15.998;2023-11-21T06:11:00;5.40;97.31
69938;DHT22;57248;47.320;15.998;2023-11-21T06:13:32;5.46;97.47
69938;DHT22;57248;47.320;15.998;2023-11-21T06:16:05;5.52;97.44
69938;DHT22;57248;47.320;15.998;2023-11-21T06:18:47;5.54;97.30
69938;DHT22;57248;47.320;15.998;2023-11-21T06:21:19;5.56;96.99
69938;DHT22;57248;47.320;15.998;2023-11-21T06:23:51;6.35;97.44
69938;DHT22;57248;47.320;15.998;2023-11-21T06:26:24;8.93;99.99
69938;DHT22;57248;47.320;15.998;2023-11-21T06:28:57;9.53;99.63
69938;DHT22;57248;47.320;15.998;2023-11-21T06:31:30;9.84;95.56
69938;DHT22;57248;47.320;15.998;2023-11-21T06:34:05;9.97;93.98
69938;DHT22;57248;47.320;15.998;2023-11-21T06:36:37;9.97;92.07
69938;DHT22;57248;47.320;15.998;2023-11-21T06:39:10;8.58;91.35
69938;DHT22;57248;47.320;15.998;2023-11-21T06:41:43;7.82;92.64
69938;DHT22;57248;47.320;15.998;2023-11-21T06:44:15;7.31;93.90
69938;DHT22;57248;47.320;15.998;2023-11-21T06:46:47;7.03;93.95
69938;DHT22;57248;47.320;15.998;2023-11-21T06:49:21;6.83;94.25
69938;DHT22;57248;47.320;15.998;2023-11-21T06:51:48;6.73;95.35
69938;DHT22;57248;47.320;15.998;2023-11-21T06:54:20;6.69;95.12
69938;DHT22;57248;47.320;15.998;2023-11-21T06:56:53;6.66;95.09
69938;DHT22;57248;47.320;15.998;2023-11-21T06:59:25;6.53;94.84
69938;DHT22;57248;47.320;15.998;2023-11-21T07:01:59;6.56;95.16
69938;DHT22;57248;47.320;15.998;2023-11-21T07:04:32;6.48;95.18
69938;DHT22;57248;47.320;15.998;2023-11-21T07:07:06;6.52;95.35
69938;DHT22;57248;47.320;15.998;2023-11-21T07:09:38;6.50;95.37
69938;DHT22;57248;47.320;15.998;2023-11-21T07:12:11;6.52;95.36
69938;DHT22;57248;47.320;15.998;2023-11-21T07:14:43;6.63;95.19
69938;DHT22;57248;47.320;15.998;2023-11-21T07:17:17;6.72;94.95
69938;DHT22;57248;47.320;15.998;2023-11-21T07:19:49;6.72;94.82
69938;DHT22;57248;47.320;15.998;2023-11-21T07:22:21;6.79;94.82
69938;DHT22;57248;47.320;15.998;2023-11-21T07:24:53;6.73;95.06
69938;DHT22;57248;47.320;15.998;2023-11-21T07:27:25;6.63;95.34
69938;DHT22;57248;47.320;15.998;2023-11-21T07:29:57;6.57;95.42
69938;DHT22;57248;47.320;15.998;2023-11-21T07:32:30;6.61;95.46
69938;DHT22;57248;47.320;15.998;2023-11-21T07:35:02;6.75;95.02
69938;DHT22;57248;47.320;15.998;2023-11-21T07:37:34;6.80;94.91
69938;DHT22;57248;47.320;15.998;2023-11-21T07:40:07;6.76;94.99
69938;DHT22;57248;47.320;15.998;2023-11-21T07:42:39;6.76;94.98
69938;DHT22;57248;47.320;15.998;2023-11-21T07:45:11;6.84;94.73
69938;DHT22;57248;47.320;15.998;2023-11-21T07:47:43;6.72;95.38
69938;DHT22;57248;47.320;15.998;2023-11-21T07:50:17;6.71;95.45
69938;DHT22;57248;47.320;15.998;2023-11-21T07:52:49;6.76;95.47
69938;DHT22;57248;47.320;15.998;2023-11-21T07:55:16;7.00;94.79
69938;DHT22;57248;47.320;15.998;2023-11-21T07:57:47;7.13;94.32
69938;DHT22;57248;47.320;15.998;2023-11-21T08:00:19;7.35;93.90
69938;DHT22;57248;47.320;15.998;2023-11-21T08:02:52;7.65;93.34
69938;DHT22;57248;47.320;15.998;2023-11-21T08:05:24;7.75;93.42
69938;DHT22;57248;47.320;15.998;2023-11-21T08:07:57;7.86;92.72
69938;DHT22;57248;47.320;15.998;2023-11-21T08:10:36;7.87;92.49
69938;DHT22;57248;47.320;15.998;2023-11-21T08:13:28;8.02;92.75
69938;DHT22;57248;47.320;15.998;2023-11-21T08:16:01;8.40;91.90
69938;DHT22;57248;47.320;15.998;2023-11-21T08:18:42;8.71;91.14
69938;DHT22;57248;47.320;15.998;2023-11-21T08:21:22;8.85;90.82
69938;DHT22;57248;47.320;15.998;2023-11-21T08:23:58;9.15;90.34
69938;DHT22;57248;47.320;15.998;2023-11-21T08:26:29;9.03;89.68
69938;DHT22;57248;47.320;15.998;2023-11-21T08:29:01;9.06;90.32
69938;DHT22;57248;47.320;15.998;2023-11-21T08:31:33;8.92;90.54
69938;DHT22;57248;47.320;15.998;2023-11-21T08:34:07;8.79;90.45
69938;DHT22;57248;47.320;15.998;2023-11-21T08:36:44;8.85;90.40
69938;DHT22;57248;47.320;15.998;2023-11-21T08:39:17;8.75;90.45
69938;DHT22;57248;47.320;15.998;2023-11-21T08:41:44;8.76;90.29
69938;DHT22;57248;47.320;15.998;2023-11-21T08:44:17;8.75;91.10
69938;DHT22;57248;47.320;15.998;2023-11-21T08:46:49;8.84;90.80
69938;DHT22;57248;47.320;15.998;2023-11-21T08:49:15;8.84;90.88
69938;DHT22;57248;47.320;15.998;2023-11-21T08:51:47;8.85;90.87
69938;DHT22;57248;47.320;15.998;2023-11-21T08:54:19;8.92;90.85
69938;DHT22;57248;47.320;15.998;2023-11-21T08:56:53;8.93;90.44
69938;DHT22;57248;47.320;15.998;2023-11-21T08:59:26;8.93;90.38
69938;DHT22;57248;47.320;15.998;2023-11-21T09:01:58;9.24;90.31
69938;DHT22;57248;47.320;15.998;2023-11-21T09:04:30;9.03;90.80
69938;DHT22;57248;47.320;15.998;2023-11-21T09:07:02;9.57;89.61
69938;DHT22;57248;47.320;15.998;2023-11-21T09:09:34;10.16;87.18
69938;DHT22;57248;47.320;15.998;2023-11-21T09:12:07;10.96;87.06
69938;DHT22;57248;47.320;15.998;2023-11-21T09:14:32;11.54;84.57
69938;DHT22;57248;47.320;15.998;2023-11-21T09:17:05;11.93;82.93
69938;DHT22;57248;47.320;15.998;2023-11-21T09:19:49;12.03;81.91
69938;DHT22;57248;47.320;15.998;2023-11-21T09:22:23;12.10;82.12
69938;DHT22;57248;47.320;15.998;2023-11-21T09:24:58;12.23;82.42
69938;DHT22;57248;47.320;15.998;2023-11-21T09:27:31;12.03;82.06
69938;DHT22;57248;47.320;15.998;2023-11-21T09:30:04;12.16;82.86
69938;DHT22;57248;47.320;15.998;2023-11-21T09:32:43;12.65;82.50
69938;DHT22;57248;47.320;15.998;2023-11-21T09:35:18;12.85;81.09
69938;DHT22;57248;47.320;15.998;2023-11-21T09:37:49;13.19;79.53
69938;DHT22;57248;47.320;15.998;2023-11-21T09:40:24;13.44;78.45
69938;DHT22;57248;47.320;15.998;2023-11-21T09:42:58;13.02;78.31
69938;DHT22;57248;47.320;15.998;2023-11-21T09:45:38;12.40;78.49
69938;DHT22;57248;47.320;15.998;2023-11-21T09:48:11;11.85;81.08
69938;DHT22;57248;47.320;15.998;2023-11-21T09:50:43;12.24;80.28
69938;DHT22;57248;47.320;15.998;2023-11-21T09:53:19;12.21;79.96
69938;DHT22;57248;47.320;15.998;2023-11-21T09:55:57;12.29;79.30
69938;DHT22;57248;47.320;15.998;2023-11-21T09:58:32;12.16;79.42
69938;DHT22;57248;47.320;15.998;2023-11-21T10:01:06;12.65;79.21
69938;DHT22;57248;47.320;15.998;2023-11-21T10:03:38;12.74;78.35
69938;DHT22;57248;47.320;15.998;2023-11-21T10:06:12;12.38;79.43
69938;DHT22;57248;47.320;15.998;2023-11-21T10:08:46;12.23;79.45
69938;DHT22;57248;47.320;15.998;2023-11-21T10:11:19;12.24;79.88
69938;DHT22;57248;47.320;15.998;2023-11-21T10:13:54;12.37;79.55
69938;DHT22;57248;47.320;15.998;2023-11-21T10:16:29;11.78;81.25
69938;DHT22;57248;47.320;15.998;2023-11-21T10:19:03;12.24;79.11
69938;DHT22;57248;47.320;15.998;2023-11-21T10:21:44;12.58;77.81
69938;DHT22;57248;47.320;15.998;2023-11-21T10:24:16;12.60;78.27
69938;DHT22;57248;47.320;15.998;2023-11-21T10:26:49;11.79;79.06
69938;DHT22;57248;47.320;15.998;2023-11-21T10:29:22;11.69;80.34
69938;DHT22;57248;47.320;15.998;2023-11-21T10:31:51;11.80;80.32
69938;DHT22;57248;47.320;15.998;2023-11-21T10:34:26;11.93;78.58
69938;DHT22;57248;47.320;15.998;2023-11-21T10:37:10;13.36;75.53
69938;DHT22;57248;47.320;15.998;2023-11-21T10:39:42;12.69;76.50
69938;DHT22;57248;47.320;15.998;2023-11-21T10:42:17;11.94;77.96
69938;DHT22;57248;47.320;15.998;2023-11-21T10:44:51;12.21;78.74
69938;DHT22;57248;47.320;15.998;2023-11-21T10:47:23;11.76;79.48
69938;DHT22;57248;47.320;15.998;2023-11-21T10:49:55;11.31;81.19
69938;DHT22;57248;47.320;15.998;2023-11-21T10:52:29;11.31;81.51
69938;DHT22;57248;47.320;15.998;2023-11-21T10:55:00;11.20;81.29
69938;DHT22;57248;47.320;15.998;2023-11-21T10:57:35;11.49;80.86
69938;DHT22;57248;47.320;15.998;2023-11-21T11:00:01;10.87;82.07
69938;DHT22;57248;47.320;15.998;2023-11-21T11:02:35;11.35;81.55
69938;DHT22;57248;47.320;15.998;2023-11-21T11:05:08;11.14;81.88
69938;DHT22;57248;47.320;15.998;2023-11-21T11:07:44;11.03;82.16
69938;DHT22;57248;47.320;15.998;2023-11-21T11:10:18;10.93;82.40
69938;DHT22;57248;47.320;15.998;2023-11-21T11:12:58;10.83;82.63
69938;DHT22;57248;47.320;15.998;2023-11-21T11:15:29;10.62;83.42
69938;DHT22;57248;47.320;15.998;2023-11-21T11:18:08;10.99;82.98
69938;DHT22;57248;47.320;15.998;2023-11-21T11:20:42;11.10;82.35
69938;DHT22;57248;47.320;15.998;2023-11-21T11:27:01;11.17;82.03
69938;DHT22;57248;47.320;15.998;2023-11-21T11:35:25;11.15;80.42
69938;DHT22;57248;47.320;15.998;2023-11-21T11:37:59;11.18;80.61
69938;DHT22;57248;47.320;15.998;2023-11-21T11:40:45;10.91;81.29
69938;DHT22;57248;47.320;15.998;2023-11-21T11:43:25;10.79;82.56
69938;DHT22;57248;47.320;15.998;2023-11-21T11:45:59;10.90;81.59
69938;DHT22;57248;47.320;15.998;2023-11-21T11:48:39;11.52;80.48
69938;DHT22;57248;47.320;15.998;2023-11-21T11:51:13;11.75;79.09
69938;DHT22;57248;47.320;15.998;2023-11-21T11:53:52;11.61;80.21
69938;DHT22;57248;47.320;15.998;2023-11-21T11:56:32;11.58;80.55
69938;DHT22;57248;47.320;15.998;2023-11-21T11:59:05;11.75;79.96
69938;DHT22;57248;47.320;15.998;2023-11-21T12:01:45;11.85;79.16
69938;DHT22;57248;47.320;15.998;2023-11-21T12:06:52;12.31;77.65
69938;DHT22;57248;47.320;15.998;2023-11-21T12:09:28;11.99;78.29
69938;DHT22;57248;47.320;15.998;2023-11-21T12:12:02;12.07;78.05
69938;DHT22;57248;47.320;15.998;2023-11-21T12:14:36;12.40;78.19
69938;DHT22;57248;47.320;15.998;2023-11-21T12:17:07;11.65;79.30
69938;DHT22;57248;47.320;15.998;2023-11-21T12:19:40;11.54;79.46
69938;DHT22;57248;47.320;15.998;2023-11-21T12:22:06;11.46;79.64
69938;DHT22;57248;47.320;15.998;2023-11-21T12:24:40;11.55;79.25
69938;DHT22;57248;47.320;15.998;2023-11-21T12:27:11;11.78;79.23
69938;DHT22;57248;47.320;15.998;2023-11-21T12:29:45;11.69;79.98
69938;DHT22;57248;47.320;15.998;2023-11-21T12:32:17;11.66;80.07
69938;DHT22;57248;47.320;15.998;2023-11-21T12:34:49;11.55;80.75
69938;DHT22;57248;47.320;15.998;2023-11-21T12:37:21;11.73;80.27
69938;DHT22;57248;47.320;15.998;2023-11-21T12:39:53;11.63;79.82
69938;DHT22;57248;47.320;15.998;2023-11-21T12:42:29;11.57;80.42
69938;DHT22;57248;47.320;15.998;2023-11-21T12:47:52;12.13;78.72
69938;DHT22;57248;47.320;15.998;2023-11-21T12:50:24;12.26;78.01
69938;DHT22;57248;47.320;15.998;2023-11-21T12:53:10;11.28;80.15
69938;DHT22;57248;47.320;15.998;2023-11-21T12:55:47;11.61;80.16
69938;DHT22;57248;47.320;15.998;2023-11-21T12:58:23;11.58;79.60
69938;DHT22;57248;47.320;15.998;2023-11-21T13:00:58;11.72;79.74
69938;DHT22;57248;47.320;15.998;2023-11-21T13:03:31;11.34;80.40
69938;DHT22;57248;47.320;15.998;2023-11-21T13:06:07;11.10;81.18
69938;DHT22;57248;47.320;15.998;2023-11-21T13:08:39;11.12;81.29
69938;DHT22;57248;47.320;15.998;2023-11-21T13:11:11;11.46;80.21
69938;DHT22;57248;47.320;15.998;2023-11-21T13:13:45;11.36;80.49
69938;DHT22;57248;47.320;15.998;2023-11-21T13:16:17;11.36;80.85
69938;DHT22;57248;47.320;15.998;2023-11-21T13:19:00;11.22;81.02
69938;DHT22;57248;47.320;15.998;2023-11-21T13:21:32;11.22;81.41
69938;DHT22;57248;47.320;15.998;2023-11-21T13:24:06;11.24;81.11
69938;DHT22;57248;47.320;15.998;2023-11-21T13:26:37;11.31;80.89
69938;DHT22;57248;47.320;15.998;2023-11-21T13:29:12;11.10;81.36
69938;DHT22;57248;47.320;15.998;2023-11-21T13:31:46;11.41;80.57
69938;DHT22;57248;47.320;15.998;2023-11-21T13:34:17;11.41;80.37
69938;DHT22;57248;47.320;15.998;2023-11-21T13:36:52;11.57;80.50
69938;DHT22;57248;47.320;15.998;2023-11-21T13:39:30;11.31;80.81
69938;DHT22;57248;47.320;15.998;2023-11-21T13:42:03;10.76;82.42
69938;DHT22;57248;47.320;15.998;2023-11-21T13:44:37;10.87;81.86
69938;DHT22;57248;47.320;15.998;2023-11-21T13:47:15;10.91;81.82
69938;DHT22;57248;47.320;15.998;2023-11-21T13:49:47;10.64;82.84
69938;DHT22;57248;47.320;15.998;2023-11-21T13:52:20;10.63;83.25
69938;DHT22;57248;47.320;15.998;2023-11-21T13:54:55;10.55;83.84
69938;DHT22;57248;47.320;15.998;2023-11-21T13:57:27;10.57;83.32
69938;DHT22;57248;47.320;15.998;2023-11-21T14:00:00;10.73;83.08
69938;DHT22;57248;47.320;15.998;2023-11-21T14:02:33;10.73;83.13
69938;DHT22;57248;47.320;15.998;2023-11-21T14:05:10;10.76;83.27
69938;DHT22;57248;47.320;15.998;2023-11-21T14:07:45;10.79;83.36
69938;DHT22;57248;47.320;15.998;2023-11-21T14:10:21;10.90;83.00
69938;DHT22;57248;47.320;15.998;2023-11-21T14:12:57;10.93;82.49
69938;DHT22;57248;47.320;15.998;2023-11-21T14:15:31;10.87;82.67
69938;DHT22;57248;47.320;15.998;2023-11-21T14:18:12;10.62;83.43
69938;DHT22;57248;47.320;15.998;2023-11-21T14:20:58;10.62;83.26
69938;DHT22;57248;47.320;15.998;2023-11-21T14:23:31;10.26;84.41
69938;DHT22;57248;47.320;15.998;2023-11-21T14:26:05;10.29;84.47
69938;DHT22;57248;47.320;15.998;2023-11-21T14:28:37;10.11;84.58
69938;DHT22;57248;47.320;15.998;2023-11-21T14:31:09;10.06;84.77
69938;DHT22;57248;47.320;15.998;2023-11-21T14:33:46;10.05;84.78
69938;DHT22;57248;47.320;15.998;2023-11-21T14:36:18;10.05;84.60
69938;DHT22;57248;47.320;15.998;2023-11-21T14:38:55;10.05;85.22
69938;DHT22;57248;47.320;15.998;2023-11-21T14:41:26;9.88;86.51
69938;DHT22;57248;47.320;15.998;2023-11-21T14:43:54;9.88;86.52
69938;DHT22;57248;47.320;15.998;2023-11-21T14:46:26;9.80;87.44
69938;DHT22;57248;47.320;15.998;2023-11-21T14:48:58;9.73;88.22
69938;DHT22;57248;47.320;15.998;2023-11-21T14:51:38;9.65;88.27
69938;DHT22;57248;47.320;15.998;2023-11-21T14:54:32;9.57;88.88
69938;DHT22;57248;47.320;15.998;2023-11-21T14:57:17;9.43;89.78
69938;DHT22;57248;47.320;15.998;2023-11-21T14:59:50;9.40;90.03
69938;DHT22;57248;47.320;15.998;2023-11-21T15:02:28;9.39;90.16
69938;DHT22;57248;47.320;15.998;2023-11-21T15:05:19;9.37;89.90
69938;DHT22;57248;47.320;15.998;2023-11-21T15:07:56;9.36;89.90
69938;DHT22;57248;47.320;15.998;2023-11-21T15:10:39;9.34;89.91
69938;DHT22;57248;47.320;15.998;2023-11-21T15:13:25;9.29;90.06
69938;DHT22;57248;47.320;15.998;2023-11-21T15:15:58;9.12;91.36
69938;DHT22;57248;47.320;15.998;2023-11-21T15:18:45;9.09;91.04
69938;DHT22;57248;47.320;15.998;2023-11-21T15:21:19;9.12;89.99
69938;DHT22;57248;47.320;15.998;2023-11-21T15:23:58;11.45;97.70
69938;DHT22;57248;47.320;15.998;2023-11-21T15:26:32;12.00;95.23
69938;DHT22;57248;47.320;15.998;2023-11-21T15:29:03;12.33;92.40
69938;DHT22;57248;47.320;15.998;2023-11-21T15:31:35;11.38;86.72
69938;DHT22;57248;47.320;15.998;2023-11-21T15:34:08;10.45;87.97
69938;DHT22;57248;47.320;15.998;2023-11-21T15:36:41;9.97;88.80
69938;DHT22;57248;47.320;15.998;2023-11-21T15:39:14;9.61;89.52
69938;DHT22;57248;47.320;15.998;2023-11-21T15:41:45;9.27;89.86
69938;DHT22;57248;47.320;15.998;2023-11-21T15:44:18;9.16;90.07
69938;DHT22;57248;47.320;15.998;2023-11-21T15:46:44;9.09;90.59
69938;DHT22;57248;47.320;15.998;2023-11-21T15:49:16;8.79;91.50
69938;DHT22;57248;47.320;15.998;2023-11-21T15:51:49;8.69;92.36
69938;DHT22;57248;47.320;15.998;2023-11-21T15:54:25;8.44;93.32
69938;DHT22;57248;47.320;15.998;2023-11-21T15:56:57;8.45;93.31
69938;DHT22;57248;47.320;15.998;2023-11-21T15:59:33;8.50;92.89
69938;DHT22;57248;47.320;15.998;2023-11-21T16:02:05;8.57;92.34
69938;DHT22;57248;47.320;15.998;2023-11-21T16:04:39;8.51;93.75
69938;DHT22;57248;47.320;15.998;2023-11-21T16:07:13;8.41;93.24
69938;DHT22;57248;47.320;15.998;2023-11-21T16:09:45;8.41;93.20
69938;DHT22;57248;47.320;15.998;2023-11-21T16:12:18;8.34;92.68
69938;DHT22;57248;47.320;15.998;2023-11-21T16:14:49;8.34;92.91
69938;DHT22;57248;47.320;15.998;2023-11-21T16:17:22;8.30;92.67